sensor_id;sensor_type;location;lat;lon;timestamp;P1;durP1;ratioP1;P2;durP2;ratioP2
75139;SDS011;63714;55.812;37.658;2023-05-17T00:02:05;11.23;;;4.57;;
75139;SDS011;63714;55.812;37.658;2023-05-17T00:04:31;8.32;;;3.78;;
75139;SDS011;63714;55.812;37.658;2023-05-17T00:06:57;6.57;;;3.67;;
75139;SDS011;63714;55.812;37.658;2023-05-17T00:09:23;8.75;;;4.28;;
75139;SDS011;63714;55.812;37.658;2023-05-17T00:11:49;7.50;;;3.83;;
75139;SDS011;63714;55.812;37.658;2023-05-17T00:14:15;8.77;;;3.97;;
75139;SDS011;63714;55.812;37.658;2023-05-17T00:16:40;6.38;;;3.90;;
75139;SDS011;63714;55.812;37.658;2023-05-17T00:19:06;9.52;;;3.90;;
75139;SDS011;63714;55.812;37.658;2023-05-17T00:21:36;12.43;;;4.13;;
75139;SDS011;63714;55.812;37.658;2023-05-17T00:24:02;6.13;;;3.75;;
75139;SDS011;63714;55.812;37.658;2023-05-17T00:26:28;9.00;;;4.07;;
75139;SDS011;63714;55.812;37.658;2023-05-17T00:28:53;7.45;;;3.45;;
75139;SDS011;63714;55.812;37.658;2023-05-17T00:31:19;8.52;;;3.60;;
75139;SDS011;63714;55.812;37.658;2023-05-17T00:33:45;8.45;;;3.42;;
75139;SDS011;63714;55.812;37.658;2023-05-17T00:36:11;7.20;;;3.95;;
75139;SDS011;63714;55.812;37.658;2023-05-17T00:38:37;9.07;;;3.92;;
75139;SDS011;63714;55.812;37.658;2023-05-17T00:41:03;6.68;;;3.85;;
75139;SDS011;63714;55.812;37.658;2023-05-17T00:43:28;7.82;;;3.90;;
75139;SDS011;63714;55.812;37.658;2023-05-17T00:45:54;10.48;;;5.18;;
75139;SDS011;63714;55.812;37.658;2023-05-17T00:48:20;9.40;;;3.70;;
75139;SDS011;63714;55.812;37.658;2023-05-17T00:50:46;5.88;;;3.92;;
75139;SDS011;63714;55.812;37.658;2023-05-17T00:53:12;5.90;;;3.45;;
75139;SDS011;63714;55.812;37.658;2023-05-17T00:55:41;9.13;;;4.00;;
75139;SDS011;63714;55.812;37.658;2023-05-17T01:00:34;7.10;;;3.80;;
75139;SDS011;63714;55.812;37.658;2023-05-17T01:03:00;6.88;;;3.83;;
75139;SDS011;63714;55.812;37.658;2023-05-17T01:05:26;11.10;;;3.63;;
75139;SDS011;63714;55.812;37.658;2023-05-17T01:07:52;6.15;;;3.85;;
75139;SDS011;63714;55.812;37.658;2023-05-17T01:10:18;9.20;;;3.85;;
75139;SDS011;63714;55.812;37.658;2023-05-17T01:15:27;8.57;;;3.88;;
75139;SDS011;63714;55.812;37.658;2023-05-17T01:18:20;8.68;;;3.83;;
75139;SDS011;63714;55.812;37.658;2023-05-17T01:20:51;15.07;;;4.30;;
75139;SDS011;63714;55.812;37.658;2023-05-17T01:29:01;7.75;;;3.72;;
75139;SDS011;63714;55.812;37.658;2023-05-17T01:31:29;5.20;;;3.33;;
75139;SDS011;63714;55.812;37.658;2023-05-17T01:33:56;6.35;;;3.90;;
75139;SDS011;63714;55.812;37.658;2023-05-17T01:36:23;7.30;;;4.60;;
75139;SDS011;63714;55.812;37.658;2023-05-17T01:38:51;10.50;;;4.72;;
75139;SDS011;63714;55.812;37.658;2023-05-17T01:43:56;9.85;;;4.35;;
75139;SDS011;63714;55.812;37.658;2023-05-17T01:46:29;10.35;;;4.10;;
75139;SDS011;63714;55.812;37.658;2023-05-17T01:51:51;8.70;;;3.65;;
75139;SDS011;63714;55.812;37.658;2023-05-17T01:54:42;6.25;;;3.72;;
75139;SDS011;63714;55.812;37.658;2023-05-17T01:57:31;10.35;;;3.67;;
75139;SDS011;63714;55.812;37.658;2023-05-17T01:59:59;11.55;;;4.38;;
75139;SDS011;63714;55.812;37.658;2023-05-17T02:02:32;6.35;;;4.18;;
75139;SDS011;63714;55.812;37.658;2023-05-17T02:04:57;9.07;;;4.05;;
75139;SDS011;63714;55.812;37.658;2023-05-17T02:07:23;9.60;;;4.50;;
75139;SDS011;63714;55.812;37.658;2023-05-17T02:09:49;6.38;;;4.35;;
75139;SDS011;63714;55.812;37.658;2023-05-17T02:12:14;7.90;;;3.80;;
75139;SDS011;63714;55.812;37.658;2023-05-17T02:14:40;10.25;;;4.70;;
75139;SDS011;63714;55.812;37.658;2023-05-17T02:17:06;7.82;;;4.13;;
75139;SDS011;63714;55.812;37.658;2023-05-17T02:19:32;8.77;;;4.32;;
75139;SDS011;63714;55.812;37.658;2023-05-17T02:21:57;7.82;;;4.65;;
75139;SDS011;63714;55.812;37.658;2023-05-17T02:24:24;7.38;;;4.50;;
75139;SDS011;63714;55.812;37.658;2023-05-17T02:26:49;11.55;;;4.45;;
75139;SDS011;63714;55.812;37.658;2023-05-17T02:29:15;10.90;;;5.03;;
75139;SDS011;63714;55.812;37.658;2023-05-17T02:31:41;11.05;;;4.40;;
75139;SDS011;63714;55.812;37.658;2023-05-17T02:34:07;11.35;;;4.55;;
75139;SDS011;63714;55.812;37.658;2023-05-17T02:36:32;7.80;;;5.10;;
75139;SDS011;63714;55.812;37.658;2023-05-17T02:38:58;11.77;;;4.60;;
75139;SDS011;63714;55.812;37.658;2023-05-17T02:41:23;8.55;;;4.78;;
75139;SDS011;63714;55.812;37.658;2023-05-17T02:43:49;8.75;;;4.70;;
75139;SDS011;63714;55.812;37.658;2023-05-17T02:46:15;10.52;;;4.97;;
75139;SDS011;63714;55.812;37.658;2023-05-17T02:48:40;10.52;;;4.68;;
75139;SDS011;63714;55.812;37.658;2023-05-17T02:51:06;9.35;;;4.85;;
75139;SDS011;63714;55.812;37.658;2023-05-17T02:53:32;11.13;;;4.80;;
75139;SDS011;63714;55.812;37.658;2023-05-17T02:55:57;12.82;;;4.78;;
75139;SDS011;63714;55.812;37.658;2023-05-17T02:58:23;13.13;;;5.25;;
75139;SDS011;63714;55.812;37.658;2023-05-17T03:00:49;10.30;;;4.93;;
75139;SDS011;63714;55.812;37.658;2023-05-17T03:03:16;13.82;;;5.07;;
75139;SDS011;63714;55.812;37.658;2023-05-17T03:05:42;11.50;;;4.72;;
75139;SDS011;63714;55.812;37.658;2023-05-17T03:08:07;9.77;;;4.70;;
75139;SDS011;63714;55.812;37.658;2023-05-17T03:10:33;15.07;;;4.90;;
75139;SDS011;63714;55.812;37.658;2023-05-17T03:12:59;10.57;;;4.90;;
75139;SDS011;63714;55.812;37.658;2023-05-17T03:15:25;8.18;;;4.47;;
75139;SDS011;63714;55.812;37.658;2023-05-17T03:17:56;11.80;;;5.07;;
75139;SDS011;63714;55.812;37.658;2023-05-17T03:20:22;11.05;;;5.28;;
75139;SDS011;63714;55.812;37.658;2023-05-17T03:22:48;10.07;;;5.38;;
75139;SDS011;63714;55.812;37.658;2023-05-17T03:25:14;10.95;;;4.63;;
75139;SDS011;63714;55.812;37.658;2023-05-17T03:27:40;12.25;;;5.20;;
75139;SDS011;63714;55.812;37.658;2023-05-17T03:30:06;11.23;;;4.40;;
75139;SDS011;63714;55.812;37.658;2023-05-17T03:32:32;9.45;;;5.18;;
75139;SDS011;63714;55.812;37.658;2023-05-17T03:34:58;11.63;;;5.10;;
75139;SDS011;63714;55.812;37.658;2023-05-17T03:37:23;10.95;;;5.30;;
75139;SDS011;63714;55.812;37.658;2023-05-17T03:39:49;10.88;;;4.82;;
75139;SDS011;63714;55.812;37.658;2023-05-17T03:42:15;9.63;;;5.32;;
75139;SDS011;63714;55.812;37.658;2023-05-17T03:44:41;10.52;;;5.60;;
75139;SDS011;63714;55.812;37.658;2023-05-17T03:47:06;13.30;;;6.05;;
75139;SDS011;63714;55.812;37.658;2023-05-17T03:49:32;11.38;;;5.82;;
75139;SDS011;63714;55.812;37.658;2023-05-17T03:51:58;10.65;;;5.57;;
75139;SDS011;63714;55.812;37.658;2023-05-17T03:54:24;17.42;;;5.60;;
75139;SDS011;63714;55.812;37.658;2023-05-17T03:56:50;15.30;;;6.30;;
75139;SDS011;63714;55.812;37.658;2023-05-17T03:59:15;13.90;;;5.30;;
75139;SDS011;63714;55.812;37.658;2023-05-17T04:01:41;12.95;;;5.38;;
75139;SDS011;63714;55.812;37.658;2023-05-17T04:04:08;12.95;;;5.90;;
75139;SDS011;63714;55.812;37.658;2023-05-17T04:06:34;9.13;;;5.88;;
75139;SDS011;63714;55.812;37.658;2023-05-17T04:08:59;8.80;;;4.47;;
75139;SDS011;63714;55.812;37.658;2023-05-17T04:11:26;11.18;;;4.78;;
75139;SDS011;63714;55.812;37.658;2023-05-17T04:13:52;13.30;;;4.50;;
75139;SDS011;63714;55.812;37.658;2023-05-17T04:16:19;7.15;;;4.35;;
75139;SDS011;63714;55.812;37.658;2023-05-17T04:18:45;13.23;;;4.47;;
75139;SDS011;63714;55.812;37.658;2023-05-17T04:21:11;11.68;;;4.15;;
75139;SDS011;63714;55.812;37.658;2023-05-17T04:23:37;10.45;;;4.25;;
75139;SDS011;63714;55.812;37.658;2023-05-17T04:26:03;8.82;;;4.47;;
75139;SDS011;63714;55.812;37.658;2023-05-17T04:28:30;9.85;;;3.75;;
75139;SDS011;63714;55.812;37.658;2023-05-17T04:30:56;7.30;;;3.70;;
75139;SDS011;63714;55.812;37.658;2023-05-17T04:33:22;9.23;;;3.63;;
75139;SDS011;63714;55.812;37.658;2023-05-17T04:35:49;7.15;;;3.50;;
75139;SDS011;63714;55.812;37.658;2023-05-17T04:38:15;10.20;;;3.25;;
75139;SDS011;63714;55.812;37.658;2023-05-17T04:40:41;10.75;;;3.65;;
75139;SDS011;63714;55.812;37.658;2023-05-17T04:43:07;10.57;;;3.78;;
75139;SDS011;63714;55.812;37.658;2023-05-17T04:45:33;6.78;;;3.40;;
75139;SDS011;63714;55.812;37.658;2023-05-17T04:47:59;11.40;;;4.00;;
75139;SDS011;63714;55.812;37.658;2023-05-17T04:50:25;7.13;;;3.30;;
75139;SDS011;63714;55.812;37.658;2023-05-17T04:52:51;8.32;;;4.00;;
75139;SDS011;63714;55.812;37.658;2023-05-17T04:55:17;10.18;;;4.05;;
75139;SDS011;63714;55.812;37.658;2023-05-17T04:57:43;7.47;;;4.20;;
75139;SDS011;63714;55.812;37.658;2023-05-17T05:00:09;7.55;;;3.70;;
75139;SDS011;63714;55.812;37.658;2023-05-17T05:02:35;8.13;;;3.67;;
75139;SDS011;63714;55.812;37.658;2023-05-17T05:05:02;7.10;;;3.58;;
75139;SDS011;63714;55.812;37.658;2023-05-17T05:07:30;8.20;;;3.22;;
75139;SDS011;63714;55.812;37.658;2023-05-17T05:09:56;5.82;;;3.13;;
75139;SDS011;63714;55.812;37.658;2023-05-17T05:12:22;10.55;;;3.33;;
75139;SDS011;63714;55.812;37.658;2023-05-17T05:14:48;8.23;;;2.83;;
75139;SDS011;63714;55.812;37.658;2023-05-17T05:17:14;8.98;;;3.28;;
75139;SDS011;63714;55.812;37.658;2023-05-17T05:19:40;6.05;;;2.97;;
75139;SDS011;63714;55.812;37.658;2023-05-17T05:22:05;4.57;;;2.40;;
75139;SDS011;63714;55.812;37.658;2023-05-17T05:24:31;7.45;;;3.08;;
75139;SDS011;63714;55.812;37.658;2023-05-17T05:26:57;7.80;;;2.90;;
75139;SDS011;63714;55.812;37.658;2023-05-17T05:29:22;8.10;;;3.00;;
75139;SDS011;63714;55.812;37.658;2023-05-17T05:31:48;6.30;;;3.22;;
75139;SDS011;63714;55.812;37.658;2023-05-17T05:34:14;5.47;;;3.38;;
75139;SDS011;63714;55.812;37.658;2023-05-17T05:36:39;5.75;;;3.20;;
75139;SDS011;63714;55.812;37.658;2023-05-17T05:39:05;9.13;;;3.33;;
75139;SDS011;63714;55.812;37.658;2023-05-17T05:41:32;7.32;;;3.40;;
75139;SDS011;63714;55.812;37.658;2023-05-17T05:43:58;7.93;;;3.40;;
75139;SDS011;63714;55.812;37.658;2023-05-17T05:46:24;8.85;;;2.92;;
75139;SDS011;63714;55.812;37.658;2023-05-17T05:48:50;7.85;;;3.13;;
75139;SDS011;63714;55.812;37.658;2023-05-17T05:51:16;10.27;;;3.63;;
75139;SDS011;63714;55.812;37.658;2023-05-17T05:53:43;9.55;;;3.45;;
75139;SDS011;63714;55.812;37.658;2023-05-17T05:56:09;10.32;;;3.13;;
75139;SDS011;63714;55.812;37.658;2023-05-17T05:58:35;7.75;;;3.22;;
75139;SDS011;63714;55.812;37.658;2023-05-17T06:01:01;10.40;;;2.90;;
75139;SDS011;63714;55.812;37.658;2023-05-17T06:03:27;5.70;;;2.45;;
75139;SDS011;63714;55.812;37.658;2023-05-17T06:05:53;7.05;;;2.63;;
75139;SDS011;63714;55.812;37.658;2023-05-17T06:08:19;6.97;;;2.63;;
75139;SDS011;63714;55.812;37.658;2023-05-17T06:10:45;4.60;;;2.65;;
75139;SDS011;63714;55.812;37.658;2023-05-17T06:13:10;5.82;;;3.42;;
75139;SDS011;63714;55.812;37.658;2023-05-17T06:15:36;5.57;;;3.65;;
75139;SDS011;63714;55.812;37.658;2023-05-17T06:18:02;7.47;;;3.72;;
75139;SDS011;63714;55.812;37.658;2023-05-17T06:20:28;4.97;;;2.72;;
75139;SDS011;63714;55.812;37.658;2023-05-17T06:22:53;5.47;;;2.63;;
75139;SDS011;63714;55.812;37.658;2023-05-17T06:25:19;7.38;;;2.65;;
75139;SDS011;63714;55.812;37.658;2023-05-17T06:27:45;3.78;;;2.08;;
75139;SDS011;63714;55.812;37.658;2023-05-17T06:30:10;5.38;;;2.05;;
75139;SDS011;63714;55.812;37.658;2023-05-17T06:32:36;3.17;;;1.92;;
75139;SDS011;63714;55.812;37.658;2023-05-17T06:35:02;2.95;;;1.80;;
75139;SDS011;63714;55.812;37.658;2023-05-17T06:37:30;5.13;;;2.00;;
75139;SDS011;63714;55.812;37.658;2023-05-17T06:40:03;3.63;;;1.70;;
75139;SDS011;63714;55.812;37.658;2023-05-17T06:42:31;4.32;;;1.92;;
75139;SDS011;63714;55.812;37.658;2023-05-17T06:44:58;3.72;;;2.00;;
75139;SDS011;63714;55.812;37.658;2023-05-17T06:47:23;3.13;;;2.03;;
75139;SDS011;63714;55.812;37.658;2023-05-17T06:49:49;6.40;;;1.83;;
75139;SDS011;63714;55.812;37.658;2023-05-17T06:52:16;4.97;;;1.80;;
75139;SDS011;63714;55.812;37.658;2023-05-17T06:54:41;5.72;;;1.88;;
75139;SDS011;63714;55.812;37.658;2023-05-17T06:57:07;5.88;;;2.33;;
75139;SDS011;63714;55.812;37.658;2023-05-17T06:59:34;7.10;;;1.92;;
75139;SDS011;63714;55.812;37.658;2023-05-17T07:02:01;4.57;;;1.77;;
75139;SDS011;63714;55.812;37.658;2023-05-17T07:04:27;3.33;;;2.00;;
75139;SDS011;63714;55.812;37.658;2023-05-17T07:06:53;2.60;;;1.70;;
75139;SDS011;63714;55.812;37.658;2023-05-17T07:09:19;4.22;;;1.95;;
75139;SDS011;63714;55.812;37.658;2023-05-17T07:11:45;3.65;;;1.80;;
75139;SDS011;63714;55.812;37.658;2023-05-17T07:14:10;6.80;;;2.00;;
75139;SDS011;63714;55.812;37.658;2023-05-17T07:16:36;5.95;;;1.92;;
75139;SDS011;63714;55.812;37.658;2023-05-17T07:19:02;3.20;;;1.83;;
75139;SDS011;63714;55.812;37.658;2023-05-17T07:21:27;3.78;;;2.50;;
75139;SDS011;63714;55.812;37.658;2023-05-17T07:23:53;6.28;;;1.83;;
75139;SDS011;63714;55.812;37.658;2023-05-17T07:26:19;3.85;;;1.83;;
75139;SDS011;63714;55.812;37.658;2023-05-17T07:28:45;5.05;;;2.13;;
75139;SDS011;63714;55.812;37.658;2023-05-17T07:31:11;5.55;;;2.08;;
75139;SDS011;63714;55.812;37.658;2023-05-17T07:33:37;3.75;;;1.70;;
75139;SDS011;63714;55.812;37.658;2023-05-17T07:36:03;2.65;;;2.08;;
75139;SDS011;63714;55.812;37.658;2023-05-17T07:38:30;5.07;;;2.40;;
75139;SDS011;63714;55.812;37.658;2023-05-17T07:40:56;6.15;;;3.25;;
75139;SDS011;63714;55.812;37.658;2023-05-17T07:43:22;3.10;;;2.30;;
75139;SDS011;63714;55.812;37.658;2023-05-17T07:45:48;5.22;;;2.17;;
75139;SDS011;63714;55.812;37.658;2023-05-17T07:48:14;4.95;;;2.33;;
75139;SDS011;63714;55.812;37.658;2023-05-17T07:50:40;3.65;;;2.15;;
75139;SDS011;63714;55.812;37.658;2023-05-17T07:53:05;3.97;;;2.22;;
75139;SDS011;63714;55.812;37.658;2023-05-17T07:55:31;3.45;;;2.45;;
75139;SDS011;63714;55.812;37.658;2023-05-17T07:57:56;4.93;;;2.30;;
75139;SDS011;63714;55.812;37.658;2023-05-17T08:00:22;3.05;;;2.15;;
75139;SDS011;63714;55.812;37.658;2023-05-17T08:02:48;3.25;;;2.15;;
75139;SDS011;63714;55.812;37.658;2023-05-17T08:05:13;5.32;;;2.15;;
75139;SDS011;63714;55.812;37.658;2023-05-17T08:07:39;5.35;;;2.00;;
75139;SDS011;63714;55.812;37.658;2023-05-17T08:10:05;3.53;;;3.03;;
75139;SDS011;63714;55.812;37.658;2023-05-17T08:12:31;3.35;;;2.70;;
75139;SDS011;63714;55.812;37.658;2023-05-17T08:14:57;6.03;;;2.25;;
75139;SDS011;63714;55.812;37.658;2023-05-17T08:17:23;5.00;;;2.20;;
75139;SDS011;63714;55.812;37.658;2023-05-17T08:19:48;3.70;;;2.10;;
75139;SDS011;63714;55.812;37.658;2023-05-17T08:22:14;2.80;;;1.88;;
75139;SDS011;63714;55.812;37.658;2023-05-17T08:24:40;5.38;;;2.50;;
75139;SDS011;63714;55.812;37.658;2023-05-17T08:27:08;4.68;;;1.75;;
75139;SDS011;63714;55.812;37.658;2023-05-17T08:29:34;2.50;;;2.10;;
75139;SDS011;63714;55.812;37.658;2023-05-17T08:32:00;3.72;;;2.13;;
75139;SDS011;63714;55.812;37.658;2023-05-17T08:34:26;2.97;;;2.65;;
75139;SDS011;63714;55.812;37.658;2023-05-17T08:36:51;10.40;;;2.40;;
75139;SDS011;63714;55.812;37.658;2023-05-17T08:39:17;5.93;;;2.40;;
75139;SDS011;63714;55.812;37.658;2023-05-17T08:41:45;2.33;;;2.08;;
75139;SDS011;63714;55.812;37.658;2023-05-17T08:44:14;5.90;;;2.60;;
75139;SDS011;63714;55.812;37.658;2023-05-17T08:46:43;4.65;;;2.03;;
75139;SDS011;63714;55.812;37.658;2023-05-17T08:49:18;4.03;;;2.13;;
75139;SDS011;63714;55.812;37.658;2023-05-17T08:51:48;3.47;;;1.80;;
75139;SDS011;63714;55.812;37.658;2023-05-17T08:54:15;3.63;;;2.10;;
75139;SDS011;63714;55.812;37.658;2023-05-17T08:56:41;6.22;;;2.45;;
75139;SDS011;63714;55.812;37.658;2023-05-17T08:59:08;4.63;;;2.22;;
75139;SDS011;63714;55.812;37.658;2023-05-17T09:01:39;5.47;;;2.47;;
75139;SDS011;63714;55.812;37.658;2023-05-17T09:04:07;8.55;;;2.83;;
75139;SDS011;63714;55.812;37.658;2023-05-17T09:06:36;4.00;;;2.45;;
75139;SDS011;63714;55.812;37.658;2023-05-17T09:09:03;6.15;;;2.28;;
75139;SDS011;63714;55.812;37.658;2023-05-17T09:11:31;2.88;;;1.98;;
75139;SDS011;63714;55.812;37.658;2023-05-17T09:14:01;4.10;;;2.45;;
75139;SDS011;63714;55.812;37.658;2023-05-17T09:16:29;4.05;;;2.50;;
75139;SDS011;63714;55.812;37.658;2023-05-17T09:19:00;3.70;;;1.83;;
75139;SDS011;63714;55.812;37.658;2023-05-17T09:21:28;4.53;;;2.15;;
75139;SDS011;63714;55.812;37.658;2023-05-17T09:23:57;4.97;;;2.22;;
75139;SDS011;63714;55.812;37.658;2023-05-17T09:26:27;5.10;;;2.40;;
75139;SDS011;63714;55.812;37.658;2023-05-17T09:29:05;3.97;;;2.42;;
75139;SDS011;63714;55.812;37.658;2023-05-17T09:31:32;4.10;;;2.15;;
75139;SDS011;63714;55.812;37.658;2023-05-17T09:33:58;2.92;;;2.20;;
75139;SDS011;63714;55.812;37.658;2023-05-17T09:36:24;6.95;;;3.08;;
75139;SDS011;63714;55.812;37.658;2023-05-17T09:38:54;3.22;;;2.20;;
75139;SDS011;63714;55.812;37.658;2023-05-17T09:41:21;3.20;;;2.40;;
75139;SDS011;63714;55.812;37.658;2023-05-17T09:43:50;4.45;;;2.53;;
75139;SDS011;63714;55.812;37.658;2023-05-17T09:46:18;5.00;;;2.10;;
75139;SDS011;63714;55.812;37.658;2023-05-17T09:48:44;2.45;;;2.08;;
75139;SDS011;63714;55.812;37.658;2023-05-17T09:51:10;7.78;;;3.15;;
75139;SDS011;63714;55.812;37.658;2023-05-17T09:53:36;2.78;;;2.08;;
75139;SDS011;63714;55.812;37.658;2023-05-17T09:56:05;4.22;;;2.58;;
75139;SDS011;63714;55.812;37.658;2023-05-17T09:58:32;4.28;;;2.15;;
75139;SDS011;63714;55.812;37.658;2023-05-17T10:00:59;5.95;;;2.30;;
75139;SDS011;63714;55.812;37.658;2023-05-17T10:03:31;2.35;;;2.10;;
75139;SDS011;63714;55.812;37.658;2023-05-17T10:06:00;3.50;;;2.35;;
75139;SDS011;63714;55.812;37.658;2023-05-17T10:08:30;2.78;;;1.98;;
75139;SDS011;63714;55.812;37.658;2023-05-17T10:10:58;4.50;;;2.03;;
75139;SDS011;63714;55.812;37.658;2023-05-17T10:13:32;4.57;;;1.73;;
75139;SDS011;63714;55.812;37.658;2023-05-17T10:16:00;5.00;;;2.20;;
75139;SDS011;63714;55.812;37.658;2023-05-17T10:18:27;4.10;;;2.15;;
75139;SDS011;63714;55.812;37.658;2023-05-17T10:20:55;7.15;;;2.40;;
75139;SDS011;63714;55.812;37.658;2023-05-17T10:23:21;4.63;;;2.17;;
75139;SDS011;63714;55.812;37.658;2023-05-17T10:25:47;4.50;;;2.40;;
75139;SDS011;63714;55.812;37.658;2023-05-17T10:28:16;4.38;;;2.20;;
75139;SDS011;63714;55.812;37.658;2023-05-17T10:30:42;4.03;;;2.08;;
75139;SDS011;63714;55.812;37.658;2023-05-17T10:33:08;4.38;;;2.10;;
75139;SDS011;63714;55.812;37.658;2023-05-17T10:35:36;4.75;;;2.38;;
75139;SDS011;63714;55.812;37.658;2023-05-17T10:38:02;4.60;;;1.92;;
75139;SDS011;63714;55.812;37.658;2023-05-17T10:40:28;3.13;;;1.83;;
75139;SDS011;63714;55.812;37.658;2023-05-17T10:42:56;5.22;;;2.33;;
75139;SDS011;63714;55.812;37.658;2023-05-17T10:45:23;4.78;;;2.13;;
75139;SDS011;63714;55.812;37.658;2023-05-17T10:47:50;2.88;;;2.20;;
75139;SDS011;63714;55.812;37.658;2023-05-17T10:50:23;4.05;;;1.88;;
75139;SDS011;63714;55.812;37.658;2023-05-17T10:52:51;2.38;;;1.75;;
75139;SDS011;63714;55.812;37.658;2023-05-17T10:55:37;6.78;;;2.40;;
75139;SDS011;63714;55.812;37.658;2023-05-17T11:00:41;3.80;;;2.55;;
75139;SDS011;63714;55.812;37.658;2023-05-17T11:03:20;5.18;;;2.00;;
75139;SDS011;63714;55.812;37.658;2023-05-17T11:08:42;6.03;;;2.13;;
75139;SDS011;63714;55.812;37.658;2023-05-17T11:11:17;2.97;;;2.20;;
75139;SDS011;63714;55.812;37.658;2023-05-17T11:13:50;6.10;;;2.53;;
75139;SDS011;63714;55.812;37.658;2023-05-17T11:16:19;5.10;;;2.40;;
75139;SDS011;63714;55.812;37.658;2023-05-17T11:18:50;5.97;;;1.95;;
75139;SDS011;63714;55.812;37.658;2023-05-17T11:21:18;3.08;;;1.95;;
75139;SDS011;63714;55.812;37.658;2023-05-17T11:23:45;4.68;;;2.38;;
75139;SDS011;63714;55.812;37.658;2023-05-17T11:26:22;4.95;;;2.05;;
75139;SDS011;63714;55.812;37.658;2023-05-17T11:29:06;5.63;;;2.45;;
75139;SDS011;63714;55.812;37.658;2023-05-17T11:31:35;5.65;;;2.15;;
75139;SDS011;63714;55.812;37.658;2023-05-17T11:34:06;4.68;;;2.33;;
75139;SDS011;63714;55.812;37.658;2023-05-17T11:36:47;4.85;;;1.98;;
75139;SDS011;63714;55.812;37.658;2023-05-17T11:39:17;2.53;;;2.03;;
75139;SDS011;63714;55.812;37.658;2023-05-17T11:41:49;5.50;;;2.22;;
75139;SDS011;63714;55.812;37.658;2023-05-17T11:44:29;3.15;;;2.05;;
75139;SDS011;63714;55.812;37.658;2023-05-17T11:47:28;3.53;;;2.35;;
75139;SDS011;63714;55.812;37.658;2023-05-17T11:49:47;3.38;;;2.40;;
75139;SDS011;63714;55.812;37.658;2023-05-17T11:52:16;2.75;;;2.03;;
75139;SDS011;63714;55.812;37.658;2023-05-17T11:54:42;2.63;;;1.80;;
75139;SDS011;63714;55.812;37.658;2023-05-17T11:57:10;2.92;;;2.03;;
75139;SDS011;63714;55.812;37.658;2023-05-17T11:59:40;4.25;;;2.40;;
75139;SDS011;63714;55.812;37.658;2023-05-17T12:02:07;4.43;;;2.08;;
75139;SDS011;63714;55.812;37.658;2023-05-17T12:04:36;4.47;;;2.25;;
75139;SDS011;63714;55.812;37.658;2023-05-17T12:07:03;4.50;;;2.28;;
75139;SDS011;63714;55.812;37.658;2023-05-17T12:09:32;3.65;;;2.30;;
75139;SDS011;63714;55.812;37.658;2023-05-17T12:11:57;3.15;;;1.80;;
75139;SDS011;63714;55.812;37.658;2023-05-17T12:14:28;4.13;;;1.65;;
75139;SDS011;63714;55.812;37.658;2023-05-17T12:16:54;4.32;;;2.00;;
75139;SDS011;63714;55.812;37.658;2023-05-17T12:19:22;4.50;;;1.98;;
75139;SDS011;63714;55.812;37.658;2023-05-17T12:22:04;6.38;;;2.50;;
75139;SDS011;63714;55.812;37.658;2023-05-17T12:24:37;5.93;;;2.25;;
75139;SDS011;63714;55.812;37.658;2023-05-17T12:27:03;4.57;;;2.10;;
75139;SDS011;63714;55.812;37.658;2023-05-17T12:29:29;9.07;;;2.08;;
75139;SDS011;63714;55.812;37.658;2023-05-17T12:31:54;5.53;;;2.00;;
75139;SDS011;63714;55.812;37.658;2023-05-17T12:34:20;4.60;;;1.80;;
75139;SDS011;63714;55.812;37.658;2023-05-17T12:36:46;3.22;;;1.83;;
75139;SDS011;63714;55.812;37.658;2023-05-17T12:39:13;6.10;;;1.75;;
75139;SDS011;63714;55.812;37.658;2023-05-17T12:41:39;3.15;;;1.60;;
75139;SDS011;63714;55.812;37.658;2023-05-17T12:44:06;4.70;;;2.33;;
75139;SDS011;63714;55.812;37.658;2023-05-17T12:46:33;5.82;;;2.85;;
75139;SDS011;63714;55.812;37.658;2023-05-17T12:49:06;5.32;;;2.08;;
75139;SDS011;63714;55.812;37.658;2023-05-17T12:51:42;5.38;;;2.08;;
75139;SDS011;63714;55.812;37.658;2023-05-17T12:54:11;3.13;;;2.00;;
75139;SDS011;63714;55.812;37.658;2023-05-17T12:56:41;3.70;;;2.00;;
75139;SDS011;63714;55.812;37.658;2023-05-17T13:01:34;3.45;;;2.45;;
75139;SDS011;63714;55.812;37.658;2023-05-17T13:04:20;6.32;;;1.85;;
75139;SDS011;63714;55.812;37.658;2023-05-17T13:06:58;4.78;;;2.88;;
75139;SDS011;63714;55.812;37.658;2023-05-17T13:09:25;4.63;;;2.03;;
75139;SDS011;63714;55.812;37.658;2023-05-17T13:11:59;4.28;;;1.95;;
75139;SDS011;63714;55.812;37.658;2023-05-17T13:17:02;2.00;;;1.60;;
75139;SDS011;63714;55.812;37.658;2023-05-17T13:19:29;3.88;;;1.80;;
75139;SDS011;63714;55.812;37.658;2023-05-17T13:21:55;4.88;;;1.92;;
75139;SDS011;63714;55.812;37.658;2023-05-17T13:24:21;4.95;;;2.17;;
75139;SDS011;63714;55.812;37.658;2023-05-17T13:26:46;6.55;;;2.03;;
75139;SDS011;63714;55.812;37.658;2023-05-17T13:29:12;3.33;;;1.77;;
75139;SDS011;63714;55.812;37.658;2023-05-17T13:31:37;3.90;;;1.73;;
75139;SDS011;63714;55.812;37.658;2023-05-17T13:34:05;8.63;;;1.90;;
75139;SDS011;63714;55.812;37.658;2023-05-17T13:36:31;3.63;;;1.92;;
75139;SDS011;63714;55.812;37.658;2023-05-17T13:38:56;2.53;;;1.55;;
75139;SDS011;63714;55.812;37.658;2023-05-17T13:41:23;2.97;;;1.60;;
75139;SDS011;63714;55.812;37.658;2023-05-17T13:43:49;3.45;;;1.70;;
75139;SDS011;63714;55.812;37.658;2023-05-17T13:46:15;2.92;;;1.60;;
75139;SDS011;63714;55.812;37.658;2023-05-17T13:48:40;5.45;;;1.80;;
75139;SDS011;63714;55.812;37.658;2023-05-17T13:51:06;3.55;;;1.80;;
75139;SDS011;63714;55.812;37.658;2023-05-17T13:53:32;2.72;;;1.70;;
75139;SDS011;63714;55.812;37.658;2023-05-17T13:55:58;4.45;;;1.88;;
75139;SDS011;63714;55.812;37.658;2023-05-17T13:58:23;4.70;;;1.65;;
75139;SDS011;63714;55.812;37.658;2023-05-17T14:00:49;5.90;;;1.30;;
75139;SDS011;63714;55.812;37.658;2023-05-17T14:03:15;2.28;;;1.70;;
75139;SDS011;63714;55.812;37.658;2023-05-17T14:05:41;4.57;;;1.85;;
75139;SDS011;63714;55.812;37.658;2023-05-17T14:08:07;8.07;;;2.03;;
75139;SDS011;63714;55.812;37.658;2023-05-17T14:10:33;3.47;;;2.25;;
75139;SDS011;63714;55.812;37.658;2023-05-17T14:12:59;2.60;;;1.58;;
75139;SDS011;63714;55.812;37.658;2023-05-17T14:15:25;3.17;;;1.27;;
75139;SDS011;63714;55.812;37.658;2023-05-17T14:17:52;5.70;;;2.40;;
75139;SDS011;63714;55.812;37.658;2023-05-17T14:20:18;7.82;;;1.60;;
75139;SDS011;63714;55.812;37.658;2023-05-17T14:22:44;4.93;;;1.80;;
75139;SDS011;63714;55.812;37.658;2023-05-17T14:25:10;4.97;;;1.75;;
75139;SDS011;63714;55.812;37.658;2023-05-17T14:27:36;4.32;;;1.85;;
75139;SDS011;63714;55.812;37.658;2023-05-17T14:30:02;4.30;;;1.52;;
75139;SDS011;63714;55.812;37.658;2023-05-17T14:32:30;4.45;;;1.65;;
75139;SDS011;63714;55.812;37.658;2023-05-17T14:34:56;2.85;;;1.50;;
75139;SDS011;63714;55.812;37.658;2023-05-17T14:37:21;4.53;;;1.45;;
75139;SDS011;63714;55.812;37.658;2023-05-17T14:39:47;3.03;;;1.70;;
75139;SDS011;63714;55.812;37.658;2023-05-17T14:42:13;6.15;;;1.65;;
75139;SDS011;63714;55.812;37.658;2023-05-17T14:44:38;3.60;;;1.60;;
75139;SDS011;63714;55.812;37.658;2023-05-17T14:47:07;2.13;;;1.33;;
75139;SDS011;63714;55.812;37.658;2023-05-17T14:49:33;4.93;;;1.85;;
75139;SDS011;63714;55.812;37.658;2023-05-17T14:51:58;2.75;;;1.60;;
75139;SDS011;63714;55.812;37.658;2023-05-17T14:54:24;4.88;;;1.60;;
75139;SDS011;63714;55.812;37.658;2023-05-17T14:56:54;2.92;;;1.58;;
75139;SDS011;63714;55.812;37.658;2023-05-17T14:59:20;5.65;;;1.73;;
75139;SDS011;63714;55.812;37.658;2023-05-17T15:01:46;6.15;;;2.40;;